createdAt,value
2019-02-07T00:00:15.076Z,20.96
2019-02-07T00:02:43.494Z,20.95
2019-02-07T00:05:12.028Z,20.95
2019-02-07T00:07:40.512Z,20.95
2019-02-07T00:10:11.940Z,20.95
2019-02-07T00:12:40.415Z,20.96
2019-02-07T00:15:10.807Z,20.93
2019-02-07T00:17:39.247Z,20.95
2019-02-07T00:20:13.807Z,20.95
2019-02-07T00:22:42.313Z,20.93
2019-02-07T00:25:11.206Z,20.93
2019-02-07T00:27:39.640Z,20.92
2019-02-07T00:30:19.541Z,20.91
2019-02-07T00:32:48.249Z,20.91
2019-02-07T00:35:16.789Z,20.89
2019-02-07T00:37:45.348Z,20.88
2019-02-07T00:40:16.339Z,20.89
2019-02-07T00:42:45.135Z,20.87
2019-02-07T00:45:16.463Z,20.87
2019-02-07T00:47:45.012Z,20.86
2019-02-07T00:50:15.110Z,20.86
2019-02-07T00:52:43.809Z,20.85
2019-02-07T00:55:17.267Z,20.84
2019-02-07T00:57:46.210Z,20.85
2019-02-07T01:00:28.837Z,20.82
2019-02-07T01:02:57.329Z,20.84
2019-02-07T01:05:25.878Z,20.83
2019-02-07T01:07:54.395Z,20.84
2019-02-07T01:10:28.176Z,20.84
2019-02-07T01:12:56.845Z,20.84
2019-02-07T01:15:26.995Z,20.82
2019-02-07T01:17:55.581Z,20.84
2019-02-07T01:20:24.092Z,20.82
2019-02-07T01:22:52.861Z,20.82
2019-02-07T01:25:23.369Z,20.82
2019-02-07T01:27:52.151Z,20.82
2019-02-07T01:30:25.157Z,20.82
2019-02-07T01:32:53.926Z,20.81
2019-02-07T01:35:22.399Z,20.80
2019-02-07T01:37:51.307Z,20.80
2019-02-07T01:40:20.709Z,20.78
2019-02-07T01:42:49.198Z,20.80
2019-02-07T01:45:20.446Z,20.78
2019-02-07T01:47:49.803Z,20.77
2019-02-07T01:50:23.510Z,20.77
2019-02-07T01:52:52.542Z,20.76
2019-02-07T01:55:21.402Z,20.77
2019-02-07T01:57:49.849Z,20.74
2019-02-07T02:00:20.273Z,20.74
2019-02-07T02:02:48.839Z,20.75
2019-02-07T02:05:21.004Z,20.73
2019-02-07T02:07:50.612Z,20.73
2019-02-07T02:10:24.676Z,20.74
2019-02-07T02:12:53.185Z,20.72
2019-02-07T02:15:24.977Z,20.74
2019-02-07T02:17:52.840Z,20.73
2019-02-07T02:20:25.473Z,20.73
2019-02-07T02:22:55.274Z,20.71
2019-02-07T02:25:23.836Z,20.72
2019-02-07T02:27:52.411Z,20.70
2019-02-07T02:30:23.685Z,20.69
2019-02-07T02:32:52.893Z,20.69
2019-02-07T02:35:21.825Z,20.70
2019-02-07T02:37:50.401Z,20.70
2019-02-07T02:40:19.343Z,20.68
2019-02-07T02:42:48.029Z,20.67
2019-02-07T02:45:21.434Z,20.69
2019-02-07T02:47:50.590Z,20.68
2019-02-07T02:50:20.316Z,20.69
2019-02-07T02:52:49.203Z,20.69
2019-02-07T02:55:25.184Z,20.68
2019-02-07T02:57:53.684Z,20.66
2019-02-07T03:00:39.878Z,20.66
2019-02-07T03:03:24.751Z,20.66
2019-02-07T03:06:12.698Z,20.65
2019-02-07T03:08:43.081Z,20.65
2019-02-07T03:11:29.513Z,20.65
2019-02-07T03:14:02.236Z,20.64
2019-02-07T03:16:35.074Z,20.65
2019-02-07T03:19:08.244Z,20.63
2019-02-07T03:21:38.382Z,20.63
2019-02-07T03:24:08.479Z,20.64
2019-02-07T03:26:54.673Z,20.65
2019-02-07T03:29:33.719Z,20.64
2019-02-07T03:32:06.680Z,20.62
2019-02-07T03:34:51.848Z,20.61
2019-02-07T03:37:40.265Z,20.61
2019-02-07T03:40:28.968Z,20.59
2019-02-07T03:43:11.057Z,20.60
2019-02-07T03:45:41.149Z,20.58
2019-02-07T03:48:22.773Z,20.63
2019-02-07T03:51:11.065Z,20.60
2019-02-07T03:53:44.217Z,20.60
2019-02-07T03:56:30.448Z,20.60
2019-02-07T03:59:16.836Z,20.61
2019-02-07T04:01:49.422Z,20.60
2019-02-07T04:04:37.776Z,20.60
2019-02-07T04:07:10.410Z,20.56
2019-02-07T04:09:43.281Z,20.60
2019-02-07T04:12:28.341Z,20.57
2019-02-07T04:14:58.404Z,20.58
2019-02-07T04:17:31.513Z,20.56
2019-02-07T04:20:17.888Z,20.56
2019-02-07T04:22:47.958Z,20.55
2019-02-07T04:25:23.856Z,20.54
2019-02-07T04:27:59.699Z,20.56
2019-02-07T04:30:29.772Z,20.56
2019-02-07T04:33:16.753Z,20.55
2019-02-07T04:35:55.786Z,20.53
2019-02-07T04:38:25.863Z,20.55
2019-02-07T04:40:55.915Z,20.52
2019-02-07T04:43:42.306Z,20.54
2019-02-07T04:46:26.585Z,20.53
2019-02-07T04:48:55.903Z,20.55
2019-02-07T04:51:25.972Z,20.55
2019-02-07T04:54:07.661Z,20.53
2019-02-07T04:56:52.971Z,20.54
2019-02-07T04:59:39.230Z,20.54
2019-02-07T05:02:27.200Z,20.52
2019-02-07T05:05:06.475Z,20.51
2019-02-07T05:07:48.427Z,20.51
2019-02-07T05:10:18.747Z,20.49
2019-02-07T05:12:51.683Z,20.49
2019-02-07T05:15:24.494Z,20.46
2019-02-07T05:18:10.467Z,20.47
2019-02-07T05:20:40.896Z,20.50
2019-02-07T05:23:28.917Z,20.49
2019-02-07T05:28:50.671Z,20.48
2019-02-07T05:31:32.891Z,20.46
2019-02-07T05:34:19.246Z,20.47
2019-02-07T05:37:01.521Z,20.47
2019-02-07T05:39:47.822Z,20.44
2019-02-07T05:42:17.891Z,20.44
2019-02-07T05:45:06.363Z,20.42
2019-02-07T05:47:36.444Z,20.44
2019-02-07T05:50:15.349Z,20.45
2019-02-07T05:52:48.369Z,20.42
2019-02-07T05:55:18.458Z,20.42
2019-02-07T05:57:48.515Z,20.43
2019-02-07T06:00:33.447Z,20.41
2019-02-07T06:03:19.902Z,20.43
2019-02-07T06:05:52.952Z,20.41
2019-02-07T06:08:31.520Z,20.40
2019-02-07T06:11:04.303Z,20.41
2019-02-07T06:13:50.088Z,20.40
2019-02-07T06:16:20.168Z,20.40
2019-02-07T06:19:02.377Z,20.39
2019-02-07T06:21:35.599Z,20.41
2019-02-07T06:24:05.820Z,20.39
2019-02-07T06:26:53.976Z,20.40
2019-02-07T06:29:24.114Z,20.41
2019-02-07T06:31:54.550Z,20.41
2019-02-07T06:34:36.511Z,20.39
2019-02-07T06:37:09.473Z,20.40
2019-02-07T06:39:56.141Z,20.40
2019-02-07T06:42:26.225Z,20.41
2019-02-07T06:44:59.250Z,20.39
2019-02-07T06:47:41.669Z,20.37
2019-02-07T06:50:11.998Z,20.38
2019-02-07T06:52:42.079Z,20.39
2019-02-07T06:55:20.841Z,20.38
2019-02-07T06:58:02.776Z,20.41
2019-02-07T07:00:45.170Z,20.45
2019-02-07T07:03:30.468Z,20.46
2019-02-07T07:06:06.528Z,20.46
2019-02-07T07:08:36.955Z,20.49
2019-02-07T07:11:07.041Z,20.49
2019-02-07T07:13:37.129Z,20.53
2019-02-07T07:16:22.905Z,20.53
2019-02-07T07:19:10.062Z,20.53
2019-02-07T07:21:40.151Z,20.54
2019-02-07T07:24:26.879Z,20.55
2019-02-07T07:27:00.074Z,20.57
2019-02-07T07:29:36.291Z,20.59
2019-02-07T07:32:19.368Z,20.59
2019-02-07T07:35:05.850Z,20.58
2019-02-07T07:37:39.167Z,20.59
2019-02-07T07:40:14.973Z,20.59
2019-02-07T07:43:00.415Z,20.60
2019-02-07T07:45:39.420Z,20.61
2019-02-07T07:48:09.552Z,20.62
2019-02-07T07:50:39.647Z,20.62
2019-02-07T07:53:15.391Z,20.62
2019-02-07T07:55:45.487Z,20.65
2019-02-07T07:58:18.280Z,20.65
2019-02-07T08:01:00.652Z,20.66
2019-02-07T08:03:46.959Z,20.67
2019-02-07T08:06:17.057Z,20.66
2019-02-07T08:08:47.116Z,20.65
2019-02-07T08:11:33.098Z,20.62
2019-02-07T08:14:03.171Z,20.60
2019-02-07T08:16:49.370Z,20.59
2019-02-07T08:19:19.542Z,20.58
2019-02-07T08:21:49.581Z,20.64
2019-02-07T08:24:31.605Z,20.67
2019-02-07T08:27:18.140Z,20.70
2019-02-07T08:29:57.283Z,20.68
2019-02-07T08:32:39.624Z,20.68
2019-02-07T08:35:22.405Z,20.65
2019-02-07T08:38:00.951Z,20.70
2019-02-07T08:40:33.991Z,20.70
2019-02-07T08:43:22.381Z,20.70
2019-02-07T08:46:10.913Z,20.70
2019-02-07T08:48:55.828Z,20.71
2019-02-07T08:51:37.856Z,20.72
2019-02-07T08:54:17.540Z,20.70
2019-02-07T08:56:56.694Z,20.69
2019-02-07T08:59:29.737Z,20.71
2019-02-07T09:02:06.052Z,20.71
2019-02-07T09:04:52.501Z,20.73
2019-02-07T09:07:22.552Z,20.73
2019-02-07T09:10:01.130Z,20.72
2019-02-07T09:12:33.915Z,20.73
2019-02-07T09:15:09.817Z,20.76
2019-02-07T09:17:45.657Z,20.74
2019-02-07T09:20:18.628Z,20.76
2019-02-07T09:22:54.739Z,20.76
2019-02-07T09:25:24.785Z,20.77
2019-02-07T09:28:11.302Z,20.75
2019-02-07T09:30:47.214Z,20.76
2019-02-07T09:33:31.958Z,20.74
2019-02-07T09:36:20.203Z,20.75
2019-02-07T09:38:50.552Z,20.75
2019-02-07T09:41:20.600Z,20.75
2019-02-07T09:43:59.716Z,20.76
2019-02-07T09:46:29.784Z,20.76
2019-02-07T09:49:16.053Z,20.78
2019-02-07T09:51:46.191Z,20.76
2019-02-07T09:54:34.362Z,20.75
2019-02-07T09:57:04.457Z,20.75
2019-02-07T09:59:34.516Z,20.77
2019-02-07T10:02:07.601Z,20.76
2019-02-07T10:04:40.782Z,20.79
2019-02-07T10:07:10.846Z,20.83
2019-02-07T10:09:40.977Z,20.88
2019-02-07T10:12:27.142Z,20.88
2019-02-07T10:14:59.646Z,20.90
2019-02-07T10:17:29.736Z,20.90
2019-02-07T10:20:15.936Z,20.90
2019-02-07T10:23:03.876Z,20.91
2019-02-07T10:25:51.435Z,20.91
2019-02-07T10:28:40.006Z,20.92
2019-02-07T10:31:13.455Z,20.90
2019-02-07T10:33:59.672Z,20.92
2019-02-07T10:36:38.524Z,20.94
2019-02-07T10:39:11.095Z,20.96
2019-02-07T10:41:56.190Z,20.97
2019-02-07T10:44:32.142Z,20.98
2019-02-07T10:47:07.674Z,20.95
2019-02-07T10:49:40.423Z,20.95
2019-02-07T10:52:22.456Z,20.95
2019-02-07T10:55:08.884Z,20.96
2019-02-07T10:57:50.874Z,20.96
2019-02-07T11:00:25.624Z,20.98
2019-02-07T11:03:07.778Z,20.98
2019-02-07T11:05:43.870Z,21.01
2019-02-07T11:08:22.897Z,20.99
2019-02-07T11:10:55.997Z,20.99
2019-02-07T11:13:42.309Z,20.97
2019-02-07T11:16:21.162Z,21.00
2019-02-07T11:19:03.221Z,21.00
2019-02-07T11:21:49.364Z,21.01
2019-02-07T11:24:37.593Z,21.00
2019-02-07T11:27:13.552Z,21.01
2019-02-07T11:29:46.343Z,21.02
2019-02-07T11:32:28.128Z,21.03
2019-02-07T11:34:58.193Z,21.02
2019-02-07T11:37:37.230Z,21.03
2019-02-07T11:40:26.336Z,21.01
2019-02-07T11:43:12.775Z,20.96
2019-02-07T11:45:48.296Z,20.96
2019-02-07T11:48:33.630Z,20.94
2019-02-07T11:51:13.832Z,20.93
2019-02-07T11:53:56.142Z,20.91
2019-02-07T11:56:40.748Z,20.91
2019-02-07T11:59:10.952Z,20.92
2019-02-07T12:01:40.982Z,20.90
2019-02-07T12:04:13.000Z,20.90
2019-02-07T12:06:43.091Z,20.88
2019-02-07T12:09:15.986Z,20.88
2019-02-07T12:11:48.776Z,20.90
2019-02-07T12:14:18.844Z,20.87
2019-02-07T12:16:48.962Z,20.87
2019-02-07T12:19:37.087Z,20.85
2019-02-07T12:22:07.566Z,20.84
2019-02-07T12:24:54.163Z,20.84
2019-02-07T12:27:27.406Z,20.84
2019-02-07T12:30:03.238Z,20.84
2019-02-07T12:32:36.232Z,20.85
2019-02-07T12:35:25.687Z,20.84
2019-02-07T12:38:11.997Z,20.82
2019-02-07T12:40:51.393Z,20.83
2019-02-07T12:43:33.570Z,20.90
2019-02-07T12:46:18.640Z,20.91
2019-02-07T12:48:48.703Z,20.96
2019-02-07T12:51:18.823Z,20.97
2019-02-07T12:53:49.186Z,20.98
2019-02-07T12:56:26.979Z,20.99
2019-02-07T12:58:57.033Z,21.00
2019-02-07T13:01:30.027Z,21.02
2019-02-07T13:04:00.076Z,21.02
2019-02-07T13:06:33.044Z,21.03
2019-02-07T13:09:03.103Z,21.02
2019-02-07T13:11:38.643Z,21.01
2019-02-07T13:14:14.888Z,21.03
2019-02-07T13:17:01.471Z,21.07
2019-02-07T13:19:40.542Z,21.08
2019-02-07T13:22:10.036Z,21.07
2019-02-07T13:24:48.923Z,21.09
2019-02-07T13:27:24.883Z,21.09
2019-02-07T13:29:57.698Z,21.10
2019-02-07T13:32:33.737Z,21.12
2019-02-07T13:35:22.240Z,21.04
2019-02-07T13:38:04.279Z,21.04
2019-02-07T13:40:40.639Z,21.07
2019-02-07T13:43:13.643Z,21.11
2019-02-07T13:45:49.928Z,21.13
2019-02-07T13:48:28.864Z,21.13
2019-02-07T13:51:15.374Z,21.15
2019-02-07T13:53:59.421Z,21.14
2019-02-07T13:56:38.165Z,21.14
2019-02-07T13:59:14.767Z,21.11
2019-02-07T14:01:50.480Z,21.09
2019-02-07T14:04:23.634Z,21.07
2019-02-07T14:07:10.225Z,21.05
2019-02-07T14:09:40.328Z,21.04
2019-02-07T14:12:11.258Z,21.04
2019-02-07T14:14:57.784Z,21.04
2019-02-07T14:17:36.686Z,21.03
2019-02-07T14:20:10.022Z,21.03
2019-02-07T14:22:56.515Z,21.04
2019-02-07T14:25:29.379Z,21.05
2019-02-07T14:28:14.327Z,21.05
2019-02-07T14:30:46.866Z,21.04
2019-02-07T14:33:16.939Z,21.04
2019-02-07T14:35:56.038Z,21.05
2019-02-07T14:38:44.681Z,21.03
2019-02-07T14:41:17.211Z,21.02
2019-02-07T14:43:47.530Z,21.01
2019-02-07T14:46:20.082Z,21.02
2019-02-07T14:48:48.534Z,21.00
2019-02-07T14:51:16.999Z,20.99
2019-02-07T14:53:45.438Z,20.98
2019-02-07T14:56:13.957Z,20.98
2019-02-07T14:58:42.360Z,20.98
2019-02-07T15:01:11.080Z,20.97
2019-02-07T15:03:39.494Z,20.96
2019-02-07T15:06:07.986Z,20.96
2019-02-07T15:08:36.422Z,20.98
2019-02-07T15:11:05.578Z,21.01
2019-02-07T15:13:34.016Z,21.02
2019-02-07T15:16:02.813Z,21.04
2019-02-07T15:18:31.257Z,21.07
2019-02-07T15:20:59.674Z,21.07
2019-02-07T15:23:28.090Z,21.09
2019-02-07T15:25:56.531Z,21.05
2019-02-07T15:28:24.980Z,21.01
2019-02-07T15:30:53.395Z,20.99
2019-02-07T15:33:22.085Z,20.97
2019-02-07T15:35:50.586Z,20.95
2019-02-07T15:38:19.057Z,20.95
2019-02-07T15:40:47.841Z,20.94
2019-02-07T15:43:16.896Z,20.94
2019-02-07T15:45:45.478Z,20.92
2019-02-07T15:48:13.961Z,20.93
2019-02-07T15:50:42.459Z,20.93
2019-02-07T15:53:11.738Z,20.93
2019-02-07T15:55:40.165Z,20.93
2019-02-07T15:58:08.574Z,20.92
2019-02-07T16:00:44.530Z,20.93
2019-02-07T16:03:14.867Z,20.91
2019-02-07T16:05:43.385Z,20.89
2019-02-07T16:08:11.792Z,20.87
2019-02-07T16:10:40.232Z,20.88
2019-02-07T16:13:08.657Z,20.88
2019-02-07T16:15:37.250Z,20.88
2019-02-07T16:18:06.128Z,20.88
2019-02-07T16:20:34.545Z,20.89
2019-02-07T16:23:03.242Z,20.89
2019-02-07T16:25:31.723Z,20.89
2019-02-07T16:28:00.158Z,20.87
2019-02-07T16:30:30.624Z,20.86
2019-02-07T16:32:59.066Z,20.87
2019-02-07T16:35:27.470Z,20.86
2019-02-07T16:37:56.146Z,20.88
2019-02-07T16:40:24.912Z,20.91
2019-02-07T16:42:53.417Z,20.93
2019-02-07T16:45:23.569Z,20.88
2019-02-07T16:47:52.011Z,20.87
2019-02-07T16:50:29.608Z,20.85
2019-02-07T16:52:58.051Z,20.85
2019-02-07T16:55:26.555Z,20.85
2019-02-07T16:57:55.000Z,20.81
2019-02-07T17:00:32.470Z,20.82
2019-02-07T17:03:00.955Z,20.82
2019-02-07T17:05:29.431Z,20.85
2019-02-07T17:07:57.846Z,20.84
2019-02-07T17:10:37.696Z,20.84
2019-02-07T17:13:08.946Z,20.84
2019-02-07T17:15:37.801Z,20.84
2019-02-07T17:18:06.268Z,20.84
2019-02-07T17:20:35.046Z,20.86
2019-02-07T17:23:04.232Z,20.83
2019-02-07T17:25:32.998Z,20.84
2019-02-07T17:28:01.400Z,20.84
2019-02-07T17:30:30.443Z,20.82
2019-02-07T17:32:59.060Z,20.82
2019-02-07T17:35:27.590Z,20.82
2019-02-07T17:37:56.185Z,20.84
2019-02-07T17:40:28.318Z,20.84
2019-02-07T17:42:56.828Z,20.85
2019-02-07T17:45:32.455Z,20.86
2019-02-07T17:48:00.890Z,20.85
2019-02-07T17:50:36.456Z,20.86
2019-02-07T17:53:07.960Z,20.84
2019-02-07T17:55:36.622Z,20.83
2019-02-07T17:58:06.376Z,20.84
2019-02-07T18:00:55.619Z,20.83
2019-02-07T18:03:24.173Z,20.83
2019-02-07T18:05:52.675Z,20.81
2019-02-07T18:08:21.551Z,20.82
2019-02-07T18:10:50.853Z,20.82
2019-02-07T18:13:19.542Z,20.81
2019-02-07T18:15:47.950Z,20.82
2019-02-07T18:18:16.781Z,20.81
2019-02-07T18:20:45.223Z,20.82
2019-02-07T18:23:13.832Z,20.83
2019-02-07T18:25:42.237Z,20.83
2019-02-07T18:28:10.747Z,20.82
2019-02-07T18:30:39.176Z,20.84
2019-02-07T18:33:07.727Z,20.84
2019-02-07T18:35:36.243Z,20.82
2019-02-07T18:38:04.828Z,20.81
2019-02-07T18:40:33.332Z,20.82
2019-02-07T18:43:02.212Z,20.82
2019-02-07T18:45:30.802Z,20.83
2019-02-07T18:47:59.229Z,20.83
2019-02-07T18:50:38.124Z,20.81
2019-02-07T18:53:07.061Z,20.82
2019-02-07T18:55:35.520Z,20.82
2019-02-07T18:58:04.932Z,20.83
2019-02-07T19:00:36.288Z,20.83
2019-02-07T19:03:06.406Z,20.81
2019-02-07T19:05:34.887Z,20.81
2019-02-07T19:08:03.554Z,20.81
2019-02-07T19:10:32.130Z,20.81
2019-02-07T19:13:00.911Z,20.81
2019-02-07T19:15:32.893Z,20.81
2019-02-07T19:18:01.312Z,20.89
2019-02-07T19:20:29.867Z,20.94
2019-02-07T19:22:58.450Z,20.95
2019-02-07T19:25:26.960Z,21.01
2019-02-07T19:27:55.768Z,21.02
2019-02-07T19:30:30.210Z,21.01
2019-02-07T19:32:58.867Z,20.99
2019-02-07T19:35:27.463Z,20.99
2019-02-07T19:37:55.970Z,21.02
2019-02-07T19:40:24.705Z,21.05
2019-02-07T19:42:52.693Z,21.06
2019-02-07T19:45:21.419Z,21.09
2019-02-07T19:47:49.071Z,21.06
2019-02-07T19:50:18.195Z,21.08
2019-02-07T19:52:46.164Z,20.90
2019-02-07T19:55:15.115Z,20.18
2019-02-07T19:57:42.763Z,20.69
2019-02-07T20:00:12.449Z,20.93
2019-02-07T20:02:40.241Z,21.05
2019-02-07T20:05:09.241Z,21.07
2019-02-07T20:07:36.901Z,21.05
2019-02-07T20:10:08.984Z,21.11
2019-02-07T20:12:36.742Z,21.12
2019-02-07T20:15:05.919Z,21.08
2019-02-07T20:17:34.019Z,21.09
2019-02-07T20:20:01.648Z,21.09
2019-02-07T20:22:29.443Z,21.12
2019-02-07T20:24:57.099Z,21.11
2019-02-07T20:27:24.732Z,21.11
2019-02-07T20:29:52.474Z,21.09
2019-02-07T20:32:20.117Z,21.10
2019-02-07T20:34:47.777Z,21.14
2019-02-07T20:37:15.760Z,21.13
2019-02-07T20:39:43.400Z,21.14
2019-02-07T20:42:11.022Z,21.13
2019-02-07T20:44:39.309Z,21.14
2019-02-07T20:47:07.158Z,21.15
2019-02-07T20:49:34.779Z,21.16
2019-02-07T20:52:02.550Z,21.16
2019-02-07T20:54:30.620Z,21.14
2019-02-07T20:56:58.430Z,21.19
2019-02-07T20:59:26.077Z,21.18
2019-02-07T21:01:53.780Z,21.18
2019-02-07T21:04:21.479Z,21.19
2019-02-07T21:06:49.214Z,21.21
2019-02-07T21:09:16.925Z,21.19
2019-02-07T21:11:44.595Z,21.18
2019-02-07T21:14:12.607Z,21.21
2019-02-07T21:16:40.276Z,21.08
2019-02-07T21:19:07.925Z,20.61
2019-02-07T21:21:35.537Z,20.97
2019-02-07T21:24:03.451Z,21.14
2019-02-07T21:26:31.079Z,21.19
2019-02-07T21:28:58.729Z,21.21
2019-02-07T21:31:26.390Z,21.23
2019-02-07T21:33:54.336Z,21.24
2019-02-07T21:36:22.028Z,21.28
2019-02-07T21:38:49.664Z,21.32
2019-02-07T21:41:17.366Z,21.30
2019-02-07T21:43:45.002Z,21.26
2019-02-07T21:46:12.651Z,21.27
2019-02-07T21:48:40.295Z,21.28
2019-02-07T21:51:08.008Z,21.28
2019-02-07T21:53:36.011Z,21.26
2019-02-07T21:56:04.008Z,21.17
2019-02-07T21:58:31.677Z,21.19
2019-02-07T22:00:59.347Z,21.24
2019-02-07T22:03:26.983Z,21.25
2019-02-07T22:05:54.597Z,21.29
2019-02-07T22:08:22.336Z,21.25
2019-02-07T22:10:50.369Z,21.31
2019-02-07T22:13:18.014Z,21.11
2019-02-07T22:15:45.684Z,21.26
2019-02-07T22:18:13.318Z,21.25
2019-02-07T22:20:40.984Z,21.26
2019-02-07T22:23:08.665Z,21.27
2019-02-07T22:25:36.400Z,21.32
2019-02-07T22:28:04.682Z,21.34
2019-02-07T22:30:33.276Z,21.38
2019-02-07T22:33:01.069Z,21.38
2019-02-07T22:35:29.012Z,21.35
2019-02-07T22:37:56.651Z,21.32
2019-02-07T22:40:24.950Z,21.30
2019-02-07T22:42:53.078Z,21.30
2019-02-07T22:45:21.763Z,21.32
2019-02-07T22:47:49.392Z,21.29
2019-02-07T22:50:18.540Z,21.34
2019-02-07T22:52:46.245Z,21.34
2019-02-07T22:55:14.137Z,21.34
2019-02-07T22:57:41.918Z,21.29
2019-02-07T23:00:27.585Z,21.29
2019-02-07T23:02:55.217Z,21.27
2019-02-07T23:05:22.893Z,21.24
2019-02-07T23:07:50.542Z,21.25
2019-02-07T23:10:18.369Z,21.28
2019-02-07T23:12:46.001Z,21.28
2019-02-07T23:15:13.776Z,21.27
2019-02-07T23:17:41.769Z,21.30
2019-02-07T23:20:10.186Z,21.27
2019-02-07T23:22:37.849Z,21.28
2019-02-07T23:25:06.504Z,21.28
2019-02-07T23:27:34.151Z,21.25
2019-02-07T23:30:01.845Z,21.29
2019-02-07T23:32:29.564Z,21.29
2019-02-07T23:34:57.212Z,21.27
2019-02-07T23:37:24.834Z,21.18
2019-02-07T23:39:52.520Z,20.98
2019-02-07T23:42:20.316Z,20.61
2019-02-07T23:44:47.966Z,20.51
2019-02-07T23:47:15.594Z,20.15
2019-02-07T23:49:43.265Z,20.23
2019-02-07T23:52:11.349Z,20.26
2019-02-07T23:54:38.966Z,20.52
2019-02-07T23:57:06.714Z,20.64
2019-02-07T23:59:34.331Z,20.69
